Time;durP1;ratioP1;P1;durP2;ratioP2;P2;SDS_P1;SDS_P2;PMS_P1;PMS_P2;Temp;Humidity;BMP_temperature;BMP_pressure;BME280_temperature;BME280_humidity;BME280_pressure;Samples;Min_cycle;Max_cycle;Signal;HPM_P1;HPM_P2
2022/07/13 00:00:20;;;;;;;9.55;4.80;;;;;;;;;;3366139;42;20598;-57
2022/07/13 00:02:46;;;;;;;8.27;4.65;;;;;;;;;;3368252;42;20166;-55
2022/07/13 00:05:12;;;;;;;8.23;4.20;;;;;;;;;;3366561;42;20178;-57
2022/07/13 00:07:38;;;;;;;8.25;4.75;;;;;;;;;;3367301;42;20116;-55
2022/07/13 00:10:04;;;;;;;7.97;4.22;;;;;;;;;;3366453;42;20157;-57
2022/07/13 00:12:30;;;;;;;9.25;4.38;;;;;;;;;;3366250;42;20203;-58
2022/07/13 00:14:56;;;;;;;9.40;4.60;;;;;;;;;;3366440;42;20080;-55
2022/07/13 00:17:22;;;;;;;8.57;4.38;;;;;;;;;;3366541;42;20091;-58
2022/07/13 00:19:48;;;;;;;8.65;4.10;;;;;;;;;;3357677;42;20143;-55
2022/07/13 00:22:14;;;;;;;8.93;4.43;;;;;;;;;;3366378;42;20102;-54
2022/07/13 00:24:40;;;;;;;15.38;4.45;;;;;;;;;;3366331;42;20092;-55
2022/07/13 00:27:06;;;;;;;8.00;4.35;;;;;;;;;;3366526;42;20139;-58
2022/07/13 00:29:32;;;;;;;8.95;4.50;;;;;;;;;;3366290;42;20102;-56
2022/07/13 00:31:58;;;;;;;8.73;4.40;;;;;;;;;;3366299;42;20084;-58
2022/07/13 00:34:24;;;;;;;11.02;4.50;;;;;;;;;;3366400;42;20091;-56
2022/07/13 00:36:50;;;;;;;9.45;4.60;;;;;;;;;;3352331;42;20085;-54
2022/07/13 00:39:16;;;;;;;9.30;5.03;;;;;;;;;;3366484;42;20139;-57
2022/07/13 00:41:48;;;;;;;8.35;4.18;;;;;;;;;;3353259;42;20096;-57
2022/07/13 00:44:14;;;;;;;7.55;4.30;;;;;;;;;;3367394;42;20131;-57
2022/07/13 00:46:43;;;;;;;11.25;4.28;;;;;;;;;;3366402;42;20158;-58
2022/07/13 00:49:10;;;;;;;7.13;3.72;;;;;;;;;;3357896;42;20095;-55
2022/07/13 00:51:36;;;;;;;9.13;3.90;;;;;;;;;;3367355;42;20091;-56
2022/07/13 00:54:02;;;;;;;7.80;3.60;;;;;;;;;;3353802;42;20132;-55
2022/07/13 00:56:28;;;;;;;9.55;3.75;;;;;;;;;;3350728;42;20142;-57
2022/07/13 00:58:54;;;;;;;7.60;3.47;;;;;;;;;;3347658;42;20150;-55
2022/07/13 01:01:19;;;;;;;9.03;3.90;;;;;;;;;;3367994;42;20185;-57
2022/07/13 01:03:45;;;;;;;7.40;3.58;;;;;;;;;;3359057;42;20174;-57
2022/07/13 01:06:11;;;;;;;7.80;3.88;;;;;;;;;;3367626;42;20178;-57
2022/07/13 01:08:37;;;;;;;7.90;3.77;;;;;;;;;;3359934;42;20180;-57
2022/07/13 01:11:03;;;;;;;8.40;4.05;;;;;;;;;;3347239;42;20088;-56
2022/07/13 01:13:29;;;;;;;10.10;4.15;;;;;;;;;;3351566;42;20095;-57
2022/07/13 01:15:55;;;;;;;9.02;4.00;;;;;;;;;;3367801;42;20099;-57
2022/07/13 01:18:21;;;;;;;7.20;4.07;;;;;;;;;;3367755;42;20079;-57
2022/07/13 01:20:47;;;;;;;8.80;4.30;;;;;;;;;;3367558;42;20534;-57
2022/07/13 01:23:14;;;;;;;8.50;4.63;;;;;;;;;;3351369;42;20522;-57
2022/07/13 01:25:41;;;;;;;7.47;4.60;;;;;;;;;;3367503;42;20479;-54
2022/07/13 01:28:07;;;;;;;8.43;4.35;;;;;;;;;;3367607;42;20610;-55
2022/07/13 01:30:33;;;;;;;10.10;4.30;;;;;;;;;;3365940;42;20139;-56
2022/07/13 01:32:59;;;;;;;12.73;5.07;;;;;;;;;;3359302;42;20080;-57
2022/07/13 01:35:25;;;;;;;8.90;4.40;;;;;;;;;;3351296;42;20092;-57
2022/07/13 01:37:51;;;;;;;8.65;4.13;;;;;;;;;;3365062;42;20084;-57
2022/07/13 01:40:17;;;;;;;8.13;4.10;;;;;;;;;;3345072;42;20115;-57
2022/07/13 01:42:45;;;;;;;8.27;4.50;;;;;;;;;;3367529;42;20088;-57
2022/07/13 01:45:12;;;;;;;8.15;4.57;;;;;;;;;;3367414;42;20083;-55
2022/07/13 01:47:39;;;;;;;8.40;4.00;;;;;;;;;;3367694;42;20096;-57
2022/07/13 01:50:06;;;;;;;8.80;4.40;;;;;;;;;;3369877;42;20624;-56
2022/07/13 01:52:33;;;;;;;8.90;4.10;;;;;;;;;;3370182;42;20182;-58
2022/07/13 01:54:59;;;;;;;8.38;4.25;;;;;;;;;;3367265;42;20096;-56
2022/07/13 01:57:25;;;;;;;12.18;4.35;;;;;;;;;;3367002;42;20581;-56
2022/07/13 01:59:51;;;;;;;7.90;3.80;;;;;;;;;;3367176;42;20119;-58
2022/07/13 02:02:17;;;;;;;9.00;4.15;;;;;;;;;;3367123;42;20173;-56
2022/07/13 02:04:43;;;;;;;7.37;3.97;;;;;;;;;;3367180;42;20084;-55
2022/07/13 02:07:09;;;;;;;6.63;3.70;;;;;;;;;;3350647;42;20119;-57
2022/07/13 02:09:35;;;;;;;8.27;3.70;;;;;;;;;;3356063;42;20091;-57
2022/07/13 02:12:01;;;;;;;8.65;4.03;;;;;;;;;;3367145;42;20522;-57
2022/07/13 02:14:27;;;;;;;7.57;3.53;;;;;;;;;;3367446;42;20574;-57
2022/07/13 02:16:53;;;;;;;9.50;4.10;;;;;;;;;;3368122;42;20139;-56
2022/07/13 02:19:19;;;;;;;7.20;3.83;;;;;;;;;;3367141;42;20189;-54
2022/07/13 02:21:46;;;;;;;7.63;3.43;;;;;;;;;;3366977;42;20614;-53
2022/07/13 02:24:12;;;;;;;7.75;3.25;;;;;;;;;;3355375;42;20511;-54
2022/07/13 02:26:38;;;;;;;7.63;3.60;;;;;;;;;;3367816;42;20083;-57
2022/07/13 02:29:04;;;;;;;8.48;3.60;;;;;;;;;;3359259;42;20153;-55
2022/07/13 02:31:30;;;;;;;6.93;3.70;;;;;;;;;;3367307;42;20132;-57
2022/07/13 02:33:56;;;;;;;7.93;3.43;;;;;;;;;;3367369;42;20099;-57
2022/07/13 02:36:22;;;;;;;6.35;3.40;;;;;;;;;;3367203;42;20140;-55
2022/07/13 02:38:48;;;;;;;6.60;3.13;;;;;;;;;;3367016;42;20088;-57
2022/07/13 02:41:14;;;;;;;6.67;3.33;;;;;;;;;;3367170;42;20147;-56
2022/07/13 02:43:40;;;;;;;7.38;3.40;;;;;;;;;;3367588;42;20143;-53
2022/07/13 02:46:05;;;;;;;7.45;3.55;;;;;;;;;;3367653;42;20115;-56
2022/07/13 02:48:33;;;;;;;8.47;3.40;;;;;;;;;;3367617;42;20099;-54
2022/07/13 02:50:59;;;;;;;7.93;3.35;;;;;;;;;;3367537;42;20107;-57
2022/07/13 02:53:25;;;;;;;7.07;3.60;;;;;;;;;;3367373;42;20123;-56
2022/07/13 02:55:51;;;;;;;8.52;3.70;;;;;;;;;;3367927;42;20568;-57
2022/07/13 02:58:17;;;;;;;6.70;3.30;;;;;;;;;;3367807;42;20088;-56
2022/07/13 03:00:43;;;;;;;6.53;3.77;;;;;;;;;;3367632;42;20095;-57
2022/07/13 03:03:09;;;;;;;8.57;3.88;;;;;;;;;;3367557;42;20094;-54
2022/07/13 03:05:35;;;;;;;7.90;3.80;;;;;;;;;;3367636;42;20094;-56
2022/07/13 03:08:01;;;;;;;9.13;4.03;;;;;;;;;;3367386;42;20506;-56
2022/07/13 03:10:27;;;;;;;8.10;3.83;;;;;;;;;;3368128;42;20286;-56
2022/07/13 03:12:54;;;;;;;7.82;4.30;;;;;;;;;;3367470;42;20632;-55
2022/07/13 03:15:21;;;;;;;7.03;3.58;;;;;;;;;;3367286;42;20092;-55
2022/07/13 03:17:47;;;;;;;10.18;3.90;;;;;;;;;;3366850;42;20147;-57
2022/07/13 03:20:13;;;;;;;9.43;3.80;;;;;;;;;;3366977;42;20083;-58
2022/07/13 03:22:38;;;;;;;9.32;3.88;;;;;;;;;;3367348;42;20088;-57
2022/07/13 03:25:05;;;;;;;7.22;3.80;;;;;;;;;;3366840;42;20344;-58
2022/07/13 03:27:31;;;;;;;8.98;3.90;;;;;;;;;;3367466;42;20084;-55
2022/07/13 03:29:57;;;;;;;8.23;3.90;;;;;;;;;;3367829;42;20479;-55
2022/07/13 03:32:23;;;;;;;8.68;4.25;;;;;;;;;;3367801;42;20083;-56
2022/07/13 03:34:49;;;;;;;8.20;3.92;;;;;;;;;;3367973;42;20119;-54
2022/07/13 03:37:15;;;;;;;8.27;3.78;;;;;;;;;;3368428;42;20550;-54
2022/07/13 03:39:41;;;;;;;8.03;4.00;;;;;;;;;;3369024;42;20091;-56
2022/07/13 03:42:07;;;;;;;9.75;3.92;;;;;;;;;;3368939;42;20155;-55
2022/07/13 03:44:33;;;;;;;7.68;3.80;;;;;;;;;;3369849;42;20080;-55
2022/07/13 03:47:00;;;;;;;6.88;3.50;;;;;;;;;;3369668;42;20143;-56
2022/07/13 03:49:26;;;;;;;7.23;3.43;;;;;;;;;;3369047;42;20206;-55
2022/07/13 03:51:52;;;;;;;8.57;3.53;;;;;;;;;;3368757;42;20504;-56
2022/07/13 03:54:18;;;;;;;6.22;3.15;;;;;;;;;;3369348;42;20606;-56
2022/07/13 03:56:44;;;;;;;6.82;3.55;;;;;;;;;;3369753;42;20092;-55
2022/07/13 03:59:10;;;;;;;8.90;3.60;;;;;;;;;;3361113;42;20084;-58
2022/07/13 04:01:35;;;;;;;7.38;3.40;;;;;;;;;;3369101;42;20104;-58
2022/07/13 04:04:03;;;;;;;8.93;3.60;;;;;;;;;;3368820;42;20096;-56
2022/07/13 04:06:29;;;;;;;7.50;3.70;;;;;;;;;;3368110;42;20100;-56
2022/07/13 04:08:55;;;;;;;6.40;3.50;;;;;;;;;;3367866;42;20135;-57
2022/07/13 04:11:21;;;;;;;8.48;3.72;;;;;;;;;;3367500;42;20087;-57
2022/07/13 04:13:47;;;;;;;10.10;4.15;;;;;;;;;;3367490;42;20634;-57
2022/07/13 04:16:13;;;;;;;7.47;3.40;;;;;;;;;;3367637;42;20158;-55
2022/07/13 04:18:39;;;;;;;7.60;3.40;;;;;;;;;;3368357;42;20348;-56
2022/07/13 04:21:07;;;;;;;7.65;3.78;;;;;;;;;;3369931;42;20100;-55
2022/07/13 04:23:33;;;;;;;6.95;3.50;;;;;;;;;;3369152;42;20153;-56
2022/07/13 04:25:58;;;;;;;7.77;3.23;;;;;;;;;;3370393;42;20083;-54
2022/07/13 04:28:25;;;;;;;7.45;3.80;;;;;;;;;;3370379;42;20353;-61
2022/07/13 04:30:51;;;;;;;6.82;3.30;;;;;;;;;;3371105;42;20092;-56
2022/07/13 04:33:17;;;;;;;7.07;3.33;;;;;;;;;;3358681;42;20100;-57
2022/07/13 04:35:42;;;;;;;7.83;3.33;;;;;;;;;;3370892;42;20222;-55
2022/07/13 04:38:08;;;;;;;8.77;3.28;;;;;;;;;;3371172;42;20362;-58
2022/07/13 04:40:34;;;;;;;8.55;3.90;;;;;;;;;;3370697;42;20135;-56
2022/07/13 04:43:00;;;;;;;6.68;3.30;;;;;;;;;;3370815;42;20637;-56
2022/07/13 04:45:26;;;;;;;7.53;3.43;;;;;;;;;;3370548;42;20641;-57
2022/07/13 04:47:52;;;;;;;11.13;3.75;;;;;;;;;;3370719;42;20092;-57
2022/07/13 04:50:19;;;;;;;8.70;4.03;;;;;;;;;;3370885;42;20088;-56
2022/07/13 04:52:45;;;;;;;6.10;3.40;;;;;;;;;;3370719;42;20683;-58
2022/07/13 04:55:10;;;;;;;7.23;3.57;;;;;;;;;;3370438;42;20652;-57
2022/07/13 04:57:36;;;;;;;7.95;3.58;;;;;;;;;;3369812;42;20581;-58
2022/07/13 05:00:09;;;;;;;8.60;3.70;;;;;;;;;;3360766;42;20186;-55
2022/07/13 05:02:35;;;;;;;7.78;3.58;;;;;;;;;;3356837;42;20096;-58
2022/07/13 05:05:03;;;;;;;8.60;3.70;;;;;;;;;;3371482;42;20158;-59
2022/07/13 05:07:29;;;;;;;8.73;3.67;;;;;;;;;;3370972;42;20087;-55
2022/07/13 05:09:55;;;;;;;8.05;3.63;;;;;;;;;;3371474;42;20127;-56
2022/07/13 05:12:21;;;;;;;7.72;3.65;;;;;;;;;;3371486;42;20534;-56
2022/07/13 05:14:47;;;;;;;8.82;3.55;;;;;;;;;;3373763;42;20546;-57
2022/07/13 05:17:13;;;;;;;7.67;3.07;;;;;;;;;;3370746;42;20100;-57
2022/07/13 05:19:39;;;;;;;10.98;3.35;;;;;;;;;;3369603;42;20106;-57
2022/07/13 05:22:06;;;;;;;7.38;3.20;;;;;;;;;;3371724;42;20139;-58
2022/07/13 05:24:32;;;;;;;9.40;3.40;;;;;;;;;;3372810;42;20209;-58
2022/07/13 05:26:58;;;;;;;9.00;3.30;;;;;;;;;;3372226;42;20091;-57
2022/07/13 05:29:24;;;;;;;7.73;3.53;;;;;;;;;;3372972;42;20358;-56
2022/07/13 05:31:50;;;;;;;7.47;3.42;;;;;;;;;;3371572;42;20155;-57
2022/07/13 05:34:16;;;;;;;6.72;3.10;;;;;;;;;;3370143;42;20107;-57
2022/07/13 05:36:42;;;;;;;9.53;3.17;;;;;;;;;;3369585;42;20088;-57
2022/07/13 05:39:08;;;;;;;7.60;3.88;;;;;;;;;;3370198;42;20095;-57
2022/07/13 05:41:34;;;;;;;9.00;3.20;;;;;;;;;;3371130;42;20100;-58
2022/07/13 05:44:00;;;;;;;8.90;3.50;;;;;;;;;;3371639;42;20075;-59
2022/07/13 05:46:26;;;;;;;15.13;4.35;;;;;;;;;;3371299;42;20640;-59
2022/07/13 05:48:52;;;;;;;9.13;3.60;;;;;;;;;;3371882;42;20099;-58
2022/07/13 05:51:18;;;;;;;11.38;3.80;;;;;;;;;;3372909;42;20091;-59
2022/07/13 05:53:46;;;;;;;7.78;3.10;;;;;;;;;;3372991;42;20096;-58
2022/07/13 05:56:13;;;;;;;7.68;3.50;;;;;;;;;;3372260;42;20087;-58
2022/07/13 05:58:39;;;;;;;6.23;3.23;;;;;;;;;;3373058;42;20175;-57
2022/07/13 06:01:05;;;;;;;7.30;3.20;;;;;;;;;;3372150;42;20099;-54
2022/07/13 06:03:31;;;;;;;7.20;3.60;;;;;;;;;;3372398;42;20083;-56
2022/07/13 06:05:58;;;;;;;7.75;3.40;;;;;;;;;;3372482;42;20108;-56
2022/07/13 06:08:23;;;;;;;8.90;3.20;;;;;;;;;;3373020;42;20087;-57
2022/07/13 06:10:52;;;;;;;9.43;3.17;;;;;;;;;;3373100;42;20102;-58
2022/07/13 06:13:18;;;;;;;7.10;3.28;;;;;;;;;;3373244;42;20142;-55
2022/07/13 06:15:44;;;;;;;8.13;3.45;;;;;;;;;;3364193;42;20561;-57
2022/07/13 06:18:10;;;;;;;10.17;3.93;;;;;;;;;;3373597;42;20079;-58
2022/07/13 06:20:36;;;;;;;7.93;3.30;;;;;;;;;;3372707;42;20092;-57
2022/07/13 06:23:11;;;;;;;7.85;3.53;;;;;;;;;;3372534;42;20106;-56
2022/07/13 06:25:38;;;;;;;10.60;3.78;;;;;;;;;;3372328;42;20087;-56
2022/07/13 06:28:05;;;;;;;7.23;3.33;;;;;;;;;;3373550;42;20138;-57
2022/07/13 06:30:31;;;;;;;9.45;3.50;;;;;;;;;;3357029;42;20091;-59
2022/07/13 06:32:57;;;;;;;7.60;3.28;;;;;;;;;;3364182;42;20080;-56
2022/07/13 06:35:23;;;;;;;11.18;3.65;;;;;;;;;;3372673;42;20170;-56
2022/07/13 06:37:49;;;;;;;6.72;3.40;;;;;;;;;;3372124;42;20206;-56
2022/07/13 06:40:15;;;;;;;8.37;3.50;;;;;;;;;;3372533;42;20146;-58
2022/07/13 06:42:41;;;;;;;7.60;3.53;;;;;;;;;;3372958;42;20095;-57
2022/07/13 06:45:08;;;;;;;15.48;3.95;;;;;;;;;;3372455;42;20095;-57
2022/07/13 06:47:35;;;;;;;9.25;3.65;;;;;;;;;;3366593;42;20099;-57
2022/07/13 06:50:00;;;;;;;12.73;3.70;;;;;;;;;;3371596;42;20088;-58
2022/07/13 06:52:26;;;;;;;8.98;3.97;;;;;;;;;;3370326;42;20555;-58
2022/07/13 06:54:52;;;;;;;8.40;3.67;;;;;;;;;;3371141;42;20634;-57
2022/07/13 06:57:18;;;;;;;8.25;3.78;;;;;;;;;;3369896;42;20138;-58
2022/07/13 06:59:44;;;;;;;10.77;3.43;;;;;;;;;;3369475;42;20625;-57
2022/07/13 07:02:10;;;;;;;8.55;3.60;;;;;;;;;;3369476;42;20545;-57
2022/07/13 07:04:36;;;;;;;9.30;3.45;;;;;;;;;;3369486;42;20087;-57
2022/07/13 07:07:02;;;;;;;7.30;3.30;;;;;;;;;;3370048;42;20559;-57
2022/07/13 07:09:28;;;;;;;10.40;3.58;;;;;;;;;;3369392;42;20562;-58
2022/07/13 07:11:55;;;;;;;12.60;4.40;;;;;;;;;;3370273;42;20087;-58
2022/07/13 07:14:21;;;;;;;10.38;4.22;;;;;;;;;;3370052;42;20147;-58
2022/07/13 07:16:47;;;;;;;7.10;3.90;;;;;;;;;;3360282;42;20084;-57
2022/07/13 07:19:13;;;;;;;8.93;3.80;;;;;;;;;;3368434;42;20554;-58
2022/07/13 07:21:40;;;;;;;8.50;3.58;;;;;;;;;;3368395;42;20114;-57
2022/07/13 07:24:06;;;;;;;9.45;3.65;;;;;;;;;;3369465;42;20156;-57
2022/07/13 07:26:32;;;;;;;9.10;3.90;;;;;;;;;;3369581;42;20119;-56
2022/07/13 07:28:58;;;;;;;6.93;3.50;;;;;;;;;;3354235;42;20087;-56
2022/07/13 07:31:25;;;;;;;9.38;3.65;;;;;;;;;;3361630;42;20143;-58
2022/07/13 07:33:51;;;;;;;7.70;3.60;;;;;;;;;;3374259;42;20098;-59
2022/07/13 07:36:17;;;;;;;8.77;3.60;;;;;;;;;;3370094;42;20566;-57
2022/07/13 07:38:44;;;;;;;8.95;4.13;;;;;;;;;;3369424;42;20151;-55
2022/07/13 07:41:13;;;;;;;8.80;3.67;;;;;;;;;;3373091;42;20146;-57
2022/07/13 07:43:39;;;;;;;8.35;3.95;;;;;;;;;;3375365;42;20095;-57
2022/07/13 07:46:05;;;;;;;9.35;3.60;;;;;;;;;;3372520;42;20088;-58
2022/07/13 07:48:31;;;;;;;11.75;3.92;;;;;;;;;;3372013;42;20111;-63
2022/07/13 07:50:57;;;;;;;8.03;4.23;;;;;;;;;;3370581;42;20087;-58
2022/07/13 07:53:23;;;;;;;11.73;4.55;;;;;;;;;;3370611;42;20493;-58
2022/07/13 07:55:49;;;;;;;14.02;4.00;;;;;;;;;;3370248;42;20109;-58
2022/07/13 07:58:15;;;;;;;7.35;3.97;;;;;;;;;;3370457;42;20566;-58
2022/07/13 08:00:41;;;;;;;8.10;4.13;;;;;;;;;;3371993;42;20141;-58
2022/07/13 08:03:08;;;;;;;8.80;3.88;;;;;;;;;;3373565;42;20186;-57
2022/07/13 08:05:34;;;;;;;9.50;3.97;;;;;;;;;;3373870;42;20080;-57
2022/07/13 08:08:00;;;;;;;10.70;4.22;;;;;;;;;;3373791;42;20131;-55
2022/07/13 08:10:27;;;;;;;7.95;4.20;;;;;;;;;;3364313;42;20099;-55
2022/07/13 08:12:53;;;;;;;9.77;4.13;;;;;;;;;;3365368;42;20139;-56
2022/07/13 08:15:19;;;;;;;9.38;4.45;;;;;;;;;;3374500;42;20087;-56
2022/07/13 08:17:46;;;;;;;10.70;4.35;;;;;;;;;;3374604;42;20139;-55
2022/07/13 08:20:12;;;;;;;9.50;4.03;;;;;;;;;;3374374;42;20092;-56
2022/07/13 08:22:38;;;;;;;11.67;4.23;;;;;;;;;;3364676;42;20100;-57
2022/07/13 08:25:05;;;;;;;10.13;4.30;;;;;;;;;;3360259;42;20292;-57
2022/07/13 08:27:32;;;;;;;10.18;4.47;;;;;;;;;;3375208;42;20301;-56
2022/07/13 08:30:01;;;;;;;8.23;4.60;;;;;;;;;;3365460;42;20084;-54
2022/07/13 08:32:27;;;;;;;8.63;4.63;;;;;;;;;;3359367;42;20095;-56
2022/07/13 08:40:21;;;;;;;9.32;4.90;;;;;;;;;;3371571;42;20110;-61
2022/07/13 08:42:47;;;;;;;9.63;4.80;;;;;;;;;;3360268;42;20173;-60
2022/07/13 08:45:13;;;;;;;10.27;4.70;;;;;;;;;;3369367;42;20143;-64
2022/07/13 08:47:41;;;;;;;10.10;5.10;;;;;;;;;;3357070;42;20103;-60
2022/07/13 08:50:08;;;;;;;9.02;4.60;;;;;;;;;;3363045;42;20606;-61
2022/07/13 08:52:38;;;;;;;8.77;4.50;;;;;;;;;;3363434;42;20147;-61
2022/07/13 08:55:05;;;;;;;8.70;4.60;;;;;;;;;;3372102;42;20155;-61
2022/07/13 08:57:40;;;;;;;10.82;4.60;;;;;;;;;;3362973;42;20609;-60
2022/07/13 09:00:10;;;;;;;12.27;5.20;;;;;;;;;;3363491;42;20113;-62
2022/07/13 09:02:36;;;;;;;11.82;4.63;;;;;;;;;;3365429;42;20102;-62
2022/07/13 09:05:06;;;;;;;9.57;4.90;;;;;;;;;;3363605;42;20096;-60
2022/07/13 09:07:33;;;;;;;9.82;4.60;;;;;;;;;;3370873;42;20640;-61
2022/07/13 09:09:59;;;;;;;8.55;4.88;;;;;;;;;;3370711;42;20147;-61
2022/07/13 09:12:26;;;;;;;8.47;4.83;;;;;;;;;;3369781;42;20114;-61
2022/07/13 09:14:52;;;;;;;8.23;4.68;;;;;;;;;;3353122;42;20087;-59
2022/07/13 09:17:47;;;;;;;10.13;5.63;;;;;;;;;;3369261;42;20132;-60
2022/07/13 09:20:13;;;;;;;14.27;5.28;;;;;;;;;;3365663;42;20669;-61
2022/07/13 09:22:57;;;;;;;12.32;5.15;;;;;;;;;;3368495;42;20080;-61
2022/07/13 09:25:33;;;;;;;9.17;5.20;;;;;;;;;;3360375;42;20529;-61
2022/07/13 09:28:06;;;;;;;10.02;4.95;;;;;;;;;;3361433;42;20111;-60
2022/07/13 09:30:32;;;;;;;9.55;5.28;;;;;;;;;;3368394;42;20130;-62
2022/07/13 09:32:58;;;;;;;13.48;5.47;;;;;;;;;;3372028;42;20506;-61
2022/07/13 09:35:47;;;;;;;10.27;5.03;;;;;;;;;;3375399;42;20160;-61
2022/07/13 09:38:36;;;;;;;8.67;4.20;;;;;;;;;;3363002;42;20100;-60
2022/07/13 09:41:14;;;;;;;9.38;4.50;;;;;;;;;;3368865;42;20163;-61
2022/07/13 09:46:57;;;;;;;9.30;4.13;;;;;;;;;;3361425;42;20096;-66
2022/07/13 09:49:43;;;;;;;10.75;3.92;;;;;;;;;;3368990;42;20162;-61
2022/07/13 09:52:13;;;;;;;9.03;4.23;;;;;;;;;;3368319;42;20087;-60
2022/07/13 09:54:41;;;;;;;8.60;4.30;;;;;;;;;;3360337;42;20096;-60
2022/07/13 09:57:09;;;;;;;12.43;4.70;;;;;;;;;;3369017;42;20099;-60
2022/07/13 09:59:35;;;;;;;6.47;2.60;;;;;;;;;;3369006;42;20088;-61
2022/07/13 10:02:01;;;;;;;8.18;3.30;;;;;;;;;;3369523;42;20131;-61
2022/07/13 10:04:27;;;;;;;7.73;3.30;;;;;;;;;;3348467;42;20096;-60
2022/07/13 10:06:53;;;;;;;7.63;3.30;;;;;;;;;;3369218;42;20096;-61
2022/07/13 10:09:29;;;;;;;11.82;3.03;;;;;;;;;;3352862;42;20500;-60
2022/07/13 10:11:55;;;;;;;9.93;3.40;;;;;;;;;;3368788;42;20181;-60
2022/07/13 10:14:21;;;;;;;7.40;3.10;;;;;;;;;;3353662;42;20514;-61
2022/07/13 10:16:47;;;;;;;6.43;2.90;;;;;;;;;;3369082;42;20086;-62
2022/07/13 10:19:13;;;;;;;7.25;3.00;;;;;;;;;;3368930;42;20139;-61
2022/07/13 10:21:49;;;;;;;8.40;2.93;;;;;;;;;;3369545;42;20173;-59
2022/07/13 10:24:15;;;;;;;7.90;3.83;;;;;;;;;;3360221;42;20287;-61
2022/07/13 10:26:41;;;;;;;9.43;3.50;;;;;;;;;;3368145;42;20148;-61
2022/07/13 10:29:12;;;;;;;8.68;3.60;;;;;;;;;;3358514;42;20096;-60
2022/07/13 10:31:40;;;;;;;9.07;3.60;;;;;;;;;;3358967;42;20475;-61
2022/07/13 10:34:07;;;;;;;7.50;3.30;;;;;;;;;;3368266;42;20559;-60
2022/07/13 10:36:51;;;;;;;9.00;3.78;;;;;;;;;;3352446;42;20157;-61
2022/07/13 10:39:27;;;;;;;8.18;3.88;;;;;;;;;;3368958;42;20083;-60
2022/07/13 10:42:03;;;;;;;11.23;4.00;;;;;;;;;;3367721;42;20092;-59
2022/07/13 10:44:42;;;;;;;9.45;3.60;;;;;;;;;;3367728;42;20112;-60
2022/07/13 10:47:12;;;;;;;9.67;3.83;;;;;;;;;;3358939;42;20789;-60
2022/07/13 10:49:47;;;;;;;7.60;3.78;;;;;;;;;;3367679;42;20088;-60
2022/07/13 10:52:19;;;;;;;8.63;4.13;;;;;;;;;;3350769;42;20549;-60
2022/07/13 10:55:04;;;;;;;8.43;4.03;;;;;;;;;;3366947;42;20110;-60
2022/07/13 10:57:30;;;;;;;8.95;4.03;;;;;;;;;;3367990;42;20559;-59
2022/07/13 11:00:19;;;;;;;12.17;3.90;;;;;;;;;;3351758;42;20080;-60
2022/07/13 11:02:50;;;;;;;7.40;3.60;;;;;;;;;;3366193;42;20157;-61
2022/07/13 11:05:17;;;;;;;8.18;3.75;;;;;;;;;;3358881;42;20505;-60
2022/07/13 11:07:46;;;;;;;7.85;4.05;;;;;;;;;;3368995;42;20466;-59
2022/07/13 11:10:28;;;;;;;9.32;4.10;;;;;;;;;;3352231;42;20092;-61
2022/07/13 11:13:04;;;;;;;9.87;4.10;;;;;;;;;;3365645;42;20096;-62
2022/07/13 11:15:50;;;;;;;9.52;4.00;;;;;;;;;;3367209;42;20494;-61
2022/07/13 11:18:22;;;;;;;8.85;4.10;;;;;;;;;;3359397;42;20107;-61
2022/07/13 11:21:14;;;;;;;10.23;4.15;;;;;;;;;;3367558;42;20107;-60
2022/07/13 11:26:51;;;;;;;11.30;4.10;;;;;;;;;;3368431;42;20103;-59
2022/07/13 11:29:56;;;;;;;11.60;4.15;;;;;;;;;;3367732;42;20135;-61
2022/07/13 11:32:22;;;;;;;10.23;3.90;;;;;;;;;;3361194;42;20100;-60
2022/07/13 11:34:48;;;;;;;9.98;4.20;;;;;;;;;;3367569;42;20147;-60
2022/07/13 11:37:14;;;;;;;8.47;4.40;;;;;;;;;;3368000;42;20546;-61
2022/07/13 11:39:40;;;;;;;10.10;4.23;;;;;;;;;;3368094;42;20296;-61
2022/07/13 11:42:07;;;;;;;11.13;4.45;;;;;;;;;;3363406;42;20122;-61
2022/07/13 11:44:34;;;;;;;10.05;4.28;;;;;;;;;;3350198;42;20211;-61
2022/07/13 11:47:07;;;;;;;10.40;4.18;;;;;;;;;;3358926;42;20154;-60
2022/07/13 11:49:43;;;;;;;9.07;4.57;;;;;;;;;;3367917;42;20091;-67
2022/07/13 11:52:29;;;;;;;12.23;5.15;;;;;;;;;;3358700;42;20189;-61
2022/07/13 11:54:57;;;;;;;8.60;4.50;;;;;;;;;;3366902;42;20170;-62
2022/07/13 11:57:23;;;;;;;11.40;4.20;;;;;;;;;;3367571;42;20092;-60
2022/07/13 11:59:49;;;;;;;12.60;5.07;;;;;;;;;;3367871;42;20079;-60
2022/07/13 12:02:15;;;;;;;8.90;4.60;;;;;;;;;;3367450;42;20106;-61
2022/07/13 12:04:41;;;;;;;10.63;4.60;;;;;;;;;;3358858;42;20162;-61
2022/07/13 12:07:23;;;;;;;8.45;4.15;;;;;;;;;;3367252;42;20127;-59
2022/07/13 12:09:56;;;;;;;10.50;4.55;;;;;;;;;;3349616;42;20101;-61
2022/07/13 12:12:32;;;;;;;12.13;4.70;;;;;;;;;;3366906;42;20134;-60
2022/07/13 12:14:58;;;;;;;12.68;4.45;;;;;;;;;;3352955;42;20143;-60
2022/07/13 12:17:26;;;;;;;15.25;4.95;;;;;;;;;;3366907;42;20084;-61
2022/07/13 12:19:52;;;;;;;12.95;4.93;;;;;;;;;;3358474;42;20138;-61
2022/07/13 12:22:24;;;;;;;11.80;5.00;;;;;;;;;;3358244;42;20226;-61
2022/07/13 12:24:50;;;;;;;14.10;5.13;;;;;;;;;;3366102;42;20143;-60
2022/07/13 12:27:26;;;;;;;12.32;5.13;;;;;;;;;;3360422;42;20153;-61
2022/07/13 12:30:07;;;;;;;11.30;4.65;;;;;;;;;;3367383;42;20087;-59
2022/07/13 12:32:52;;;;;;;10.07;5.00;;;;;;;;;;3364411;42;20136;-60
2022/07/13 12:35:18;;;;;;;9.32;5.25;;;;;;;;;;3355588;42;20179;-62
2022/07/13 12:37:44;;;;;;;12.07;5.13;;;;;;;;;;3351953;42;20180;-61
2022/07/13 12:40:10;;;;;;;11.10;5.35;;;;;;;;;;3346663;42;20092;-61
2022/07/13 12:42:45;;;;;;;16.70;5.78;;;;;;;;;;3364173;42;20180;-61
2022/07/13 12:45:16;;;;;;;12.88;5.40;;;;;;;;;;3351104;42;20092;-61
2022/07/13 12:47:42;;;;;;;11.73;5.25;;;;;;;;;;3368809;42;20118;-61
2022/07/13 12:50:25;;;;;;;11.97;4.90;;;;;;;;;;3369184;42;20104;-61
2022/07/13 12:53:01;;;;;;;12.40;5.65;;;;;;;;;;3363060;42;20084;-61
2022/07/13 12:55:27;;;;;;;11.32;5.32;;;;;;;;;;3368774;42;20155;-61
2022/07/13 12:57:53;;;;;;;15.10;5.22;;;;;;;;;;3368856;42;20131;-61
2022/07/13 13:00:24;;;;;;;14.05;5.68;;;;;;;;;;3369527;42;20578;-62
2022/07/13 13:02:50;;;;;;;14.73;5.60;;;;;;;;;;3368584;42;20095;-62
2022/07/13 13:05:16;;;;;;;13.82;5.10;;;;;;;;;;3359833;42;20084;-62
2022/07/13 13:07:42;;;;;;;17.05;5.38;;;;;;;;;;3368418;42;20589;-62
2022/07/13 13:10:08;;;;;;;12.48;5.40;;;;;;;;;;3359803;42;20084;-60
2022/07/13 13:12:34;;;;;;;12.52;5.22;;;;;;;;;;3368606;42;20139;-60
2022/07/13 13:15:01;;;;;;;14.00;6.10;;;;;;;;;;3359739;42;20142;-62
2022/07/13 13:17:27;;;;;;;12.25;5.43;;;;;;;;;;3368322;42;20114;-59
2022/07/13 13:19:53;;;;;;;14.18;5.28;;;;;;;;;;3368891;42;20147;-60
2022/07/13 13:22:19;;;;;;;14.63;5.20;;;;;;;;;;3368571;42;20550;-61
2022/07/13 13:24:46;;;;;;;11.20;5.37;;;;;;;;;;3358718;42;20539;-61
2022/07/13 13:27:12;;;;;;;12.90;5.80;;;;;;;;;;3358091;42;20147;-60
2022/07/13 13:32:23;;;;;;;14.73;5.70;;;;;;;;;;3367652;42;20151;-60
2022/07/13 13:34:49;;;;;;;10.68;6.00;;;;;;;;;;3358337;42;20106;-60
2022/07/13 13:37:15;;;;;;;12.33;5.43;;;;;;;;;;3367636;42;20092;-63
2022/07/13 13:39:41;;;;;;;10.85;5.22;;;;;;;;;;3367569;42;20541;-61
2022/07/13 13:42:07;;;;;;;13.93;5.63;;;;;;;;;;3366855;42;20651;-61
2022/07/13 13:44:33;;;;;;;13.07;5.97;;;;;;;;;;3367320;42;20096;-62
2022/07/13 13:46:59;;;;;;;10.85;5.85;;;;;;;;;;3358102;42;20169;-62
2022/07/13 13:49:25;;;;;;;14.43;5.83;;;;;;;;;;3361411;42;20088;-61
2022/07/13 13:51:51;;;;;;;12.93;5.70;;;;;;;;;;3368198;42;20079;-61
2022/07/13 13:54:17;;;;;;;13.27;5.75;;;;;;;;;;3368018;42;20111;-61
2022/07/13 13:56:44;;;;;;;10.60;5.40;;;;;;;;;;3365877;42;20190;-61
2022/07/13 13:59:10;;;;;;;12.27;5.50;;;;;;;;;;3353671;42;20088;-60
2022/07/13 14:01:36;;;;;;;10.05;5.80;;;;;;;;;;3367281;42;20167;-60
2022/07/13 14:04:02;;;;;;;10.73;5.38;;;;;;;;;;3367609;42;20155;-60
2022/07/13 14:06:28;;;;;;;12.07;5.40;;;;;;;;;;3367703;42;20143;-62
2022/07/13 14:08:55;;;;;;;11.50;5.55;;;;;;;;;;3367763;42;20139;-62
2022/07/13 14:11:21;;;;;;;10.63;5.60;;;;;;;;;;3367508;42;20738;-61
2022/07/13 14:13:47;;;;;;;13.43;5.82;;;;;;;;;;3368127;42;20099;-61
2022/07/13 14:16:13;;;;;;;10.38;5.10;;;;;;;;;;3368471;42;20111;-62
2022/07/13 14:18:40;;;;;;;11.27;5.35;;;;;;;;;;3369113;42;20091;-61
2022/07/13 14:21:07;;;;;;;16.30;5.50;;;;;;;;;;3357787;42;20147;-60
2022/07/13 14:23:33;;;;;;;14.23;5.60;;;;;;;;;;3366603;42;20087;-63
2022/07/13 14:25:58;;;;;;;13.95;5.60;;;;;;;;;;3358278;42;20180;-59
2022/07/13 14:28:24;;;;;;;16.02;6.18;;;;;;;;;;3367223;42;20553;-62
2022/07/13 14:30:51;;;;;;;11.43;5.63;;;;;;;;;;3367496;42;20585;-61
2022/07/13 14:33:16;;;;;;;13.60;5.60;;;;;;;;;;3363552;42;20833;-61
2022/07/13 14:35:43;;;;;;;12.23;5.90;;;;;;;;;;3367135;42;20585;-61
2022/07/13 14:38:13;;;;;;;12.23;5.75;;;;;;;;;;3357944;42;20542;-64
2022/07/13 14:40:43;;;;;;;13.15;5.88;;;;;;;;;;3358208;42;20100;-59
2022/07/13 14:43:10;;;;;;;11.57;5.93;;;;;;;;;;3358358;42;20640;-60
2022/07/13 14:45:37;;;;;;;11.77;5.87;;;;;;;;;;3358150;42;20150;-61
2022/07/13 14:48:03;;;;;;;15.43;5.57;;;;;;;;;;3367366;42;20545;-61
2022/07/13 14:50:30;;;;;;;34.60;11.20;;;;;;;;;;3369425;42;20234;-57
2022/07/13 14:52:57;;;;;;;35.47;11.07;;;;;;;;;;3367039;42;20098;-59
2022/07/13 14:55:23;;;;;;;41.42;12.35;;;;;;;;;;3367051;42;20166;-61